sensor_id;sensor_type;location;lat;lon;timestamp;pressure;altitude;pressure_sealevel;temperature;humidity
47742;BME280;33504;52.066;6.096;2024-01-10T00:00:41;103148.63;;;-2.38;33.58
47742;BME280;33504;52.066;6.096;2024-01-10T00:03:08;103147.12;;;-2.43;33.50
47742;BME280;33504;52.066;6.096;2024-01-10T00:05:35;103148.69;;;-1.96;33.36
47742;BME280;33504;52.066;6.096;2024-01-10T00:08:03;103153.41;;;-2.51;33.80
47742;BME280;33504;52.066;6.096;2024-01-10T00:10:30;103148.42;;;-2.18;33.55
47742;BME280;33504;52.066;6.096;2024-01-10T00:12:57;103146.23;;;-2.00;33.47
47742;BME280;33504;52.066;6.096;2024-01-10T00:15:24;103143.61;;;-2.27;33.82
47742;BME280;33504;52.066;6.096;2024-01-10T00:17:51;103146.23;;;-2.13;33.72
47742;BME280;33504;52.066;6.096;2024-01-10T00:20:18;103142.73;;;-1.87;33.46
47742;BME280;33504;52.066;6.096;2024-01-10T00:22:45;103141.25;;;-2.31;33.61
47742;BME280;33504;52.066;6.096;2024-01-10T00:25:12;103139.63;;;-2.22;33.87
47742;BME280;33504;52.066;6.096;2024-01-10T00:27:39;103137.12;;;-1.97;33.56
47742;BME280;33504;52.066;6.096;2024-01-10T00:30:08;103136.24;;;-1.91;33.54
47742;BME280;33504;52.066;6.096;2024-01-10T00:32:35;103128.75;;;-2.10;33.60
47742;BME280;33504;52.066;6.096;2024-01-10T00:35:02;103128.81;;;-2.22;33.62
47742;BME280;33504;52.066;6.096;2024-01-10T00:37:29;103124.75;;;-2.00;33.59
47742;BME280;33504;52.066;6.096;2024-01-10T00:39:57;103127.60;;;-2.37;33.53
47742;BME280;33504;52.066;6.096;2024-01-10T00:42:24;103124.97;;;-2.06;33.69
47742;BME280;33504;52.066;6.096;2024-01-10T00:44:51;103123.27;;;-2.20;33.62
47742;BME280;33504;52.066;6.096;2024-01-10T00:47:18;103127.08;;;-2.21;33.57
47742;BME280;33504;52.066;6.096;2024-01-10T00:49:45;103123.71;;;-2.27;33.65
47742;BME280;33504;52.066;6.096;2024-01-10T00:52:12;103119.63;;;-2.20;33.55
47742;BME280;33504;52.066;6.096;2024-01-10T00:54:39;103119.72;;;-2.10;33.56
47742;BME280;33504;52.066;6.096;2024-01-10T00:57:06;103118.16;;;-2.27;33.72
47742;BME280;33504;52.066;6.096;2024-01-10T00:59:34;103116.83;;;-2.11;33.60
47742;BME280;33504;52.066;6.096;2024-01-10T01:02:01;103117.34;;;-2.35;33.57
47742;BME280;33504;52.066;6.096;2024-01-10T01:04:28;103116.56;;;-1.96;33.69
47742;BME280;33504;52.066;6.096;2024-01-10T01:06:55;103115.89;;;-2.05;33.57
47742;BME280;33504;52.066;6.096;2024-01-10T01:09:23;103113.14;;;-2.03;33.63
47742;BME280;33504;52.066;6.096;2024-01-10T01:11:50;103115.03;;;-1.98;33.75
47742;BME280;33504;52.066;6.096;2024-01-10T01:14:18;103113.94;;;-1.90;33.63
47742;BME280;33504;52.066;6.096;2024-01-10T01:16:45;103116.38;;;-2.17;33.65
47742;BME280;33504;52.066;6.096;2024-01-10T01:19:12;103111.55;;;-2.11;34.05
47742;BME280;33504;52.066;6.096;2024-01-10T01:21:39;103110.96;;;-1.95;33.78
47742;BME280;33504;52.066;6.096;2024-01-10T01:24:06;103112.04;;;-2.38;33.80
47742;BME280;33504;52.066;6.096;2024-01-10T01:26:33;103109.17;;;-2.43;34.04
47742;BME280;33504;52.066;6.096;2024-01-10T01:29:00;103111.01;;;-2.03;33.91
47742;BME280;33504;52.066;6.096;2024-01-10T01:31:28;103108.39;;;-2.12;33.91
47742;BME280;33504;52.066;6.096;2024-01-10T01:33:55;103103.39;;;-2.18;34.04
47742;BME280;33504;52.066;6.096;2024-01-10T01:36:22;103101.18;;;-2.09;33.90
47742;BME280;33504;52.066;6.096;2024-01-10T01:38:49;103102.47;;;-2.03;33.93
47742;BME280;33504;52.066;6.096;2024-01-10T01:41:17;103102.14;;;-2.04;33.96
47742;BME280;33504;52.066;6.096;2024-01-10T01:43:44;103102.51;;;-2.13;34.18
47742;BME280;33504;52.066;6.096;2024-01-10T01:46:11;103100.38;;;-2.07;34.03
47742;BME280;33504;52.066;6.096;2024-01-10T01:48:39;103101.05;;;-2.05;34.03
47742;BME280;33504;52.066;6.096;2024-01-10T01:51:07;103103.70;;;-2.06;34.20
47742;BME280;33504;52.066;6.096;2024-01-10T01:53:35;103103.16;;;-2.06;34.25
47742;BME280;33504;52.066;6.096;2024-01-10T01:56:05;103098.78;;;-2.09;34.20
47742;BME280;33504;52.066;6.096;2024-01-10T01:58:33;103094.84;;;-2.40;34.34
47742;BME280;33504;52.066;6.096;2024-01-10T02:01:02;103093.40;;;-2.10;34.61
47742;BME280;33504;52.066;6.096;2024-01-10T02:03:31;103094.43;;;-2.10;34.62
47742;BME280;33504;52.066;6.096;2024-01-10T02:05:58;103090.32;;;-2.14;34.66
47742;BME280;33504;52.066;6.096;2024-01-10T02:08:25;103089.26;;;-2.11;34.59
47742;BME280;33504;52.066;6.096;2024-01-10T02:10:52;103091.93;;;-2.10;34.70
47742;BME280;33504;52.066;6.096;2024-01-10T02:13:19;103088.08;;;-1.92;34.71
47742;BME280;33504;52.066;6.096;2024-01-10T02:15:46;103083.00;;;-2.18;34.66
47742;BME280;33504;52.066;6.096;2024-01-10T02:18:13;103083.35;;;-2.43;35.04
47742;BME280;33504;52.066;6.096;2024-01-10T02:20:44;103081.60;;;-2.29;34.94
47742;BME280;33504;52.066;6.096;2024-01-10T02:23:11;103078.34;;;-2.44;34.98
47742;BME280;33504;52.066;6.096;2024-01-10T02:25:39;103081.08;;;-2.27;34.95
47742;BME280;33504;52.066;6.096;2024-01-10T02:28:07;103074.00;;;-2.21;34.93
47742;BME280;33504;52.066;6.096;2024-01-10T02:30:34;103066.68;;;-2.26;34.93
47742;BME280;33504;52.066;6.096;2024-01-10T02:33:01;103063.84;;;-1.83;35.16
47742;BME280;33504;52.066;6.096;2024-01-10T02:35:29;103062.50;;;-2.25;35.06
47742;BME280;33504;52.066;6.096;2024-01-10T02:37:56;103066.98;;;-2.29;35.15
47742;BME280;33504;52.066;6.096;2024-01-10T02:40:24;103067.30;;;-2.30;35.02
47742;BME280;33504;52.066;6.096;2024-01-10T02:42:51;103066.93;;;-2.29;35.09
47742;BME280;33504;52.066;6.096;2024-01-10T02:45:18;103069.55;;;-2.34;34.90
47742;BME280;33504;52.066;6.096;2024-01-10T02:47:46;103072.10;;;-2.49;35.19
47742;BME280;33504;52.066;6.096;2024-01-10T02:50:13;103068.77;;;-2.14;35.07
47742;BME280;33504;52.066;6.096;2024-01-10T02:52:40;103065.34;;;-2.44;35.31
47742;BME280;33504;52.066;6.096;2024-01-10T02:55:08;103064.05;;;-2.69;35.21
47742;BME280;33504;52.066;6.096;2024-01-10T02:57:35;103064.45;;;-2.24;35.32
47742;BME280;33504;52.066;6.096;2024-01-10T03:00:02;103061.12;;;-2.20;35.23
47742;BME280;33504;52.066;6.096;2024-01-10T03:02:29;103061.22;;;-2.49;35.43
47742;BME280;33504;52.066;6.096;2024-01-10T03:04:56;103057.30;;;-2.43;35.38
47742;BME280;33504;52.066;6.096;2024-01-10T03:07:23;103054.74;;;-2.44;35.23
47742;BME280;33504;52.066;6.096;2024-01-10T03:09:50;103054.44;;;-2.40;35.40
47742;BME280;33504;52.066;6.096;2024-01-10T03:12:18;103052.79;;;-2.43;35.41
47742;BME280;33504;52.066;6.096;2024-01-10T03:14:45;103049.44;;;-2.41;35.31
47742;BME280;33504;52.066;6.096;2024-01-10T03:17:12;103044.87;;;-2.18;35.44
47742;BME280;33504;52.066;6.096;2024-01-10T03:19:39;103052.94;;;-2.16;35.37
47742;BME280;33504;52.066;6.096;2024-01-10T03:22:06;103049.79;;;-2.15;35.34
47742;BME280;33504;52.066;6.096;2024-01-10T03:24:34;103046.06;;;-2.41;35.40
47742;BME280;33504;52.066;6.096;2024-01-10T03:27:01;103052.45;;;-2.45;35.45
47742;BME280;33504;52.066;6.096;2024-01-10T03:29:28;103041.43;;;-2.43;35.37
47742;BME280;33504;52.066;6.096;2024-01-10T03:31:55;103037.82;;;-2.45;35.48
47742;BME280;33504;52.066;6.096;2024-01-10T03:34:23;103035.43;;;-2.45;35.47
47742;BME280;33504;52.066;6.096;2024-01-10T03:36:50;103036.60;;;-2.49;35.58
47742;BME280;33504;52.066;6.096;2024-01-10T03:39:17;103038.47;;;-2.53;35.45
47742;BME280;33504;52.066;6.096;2024-01-10T03:41:45;103037.64;;;-2.55;35.55
47742;BME280;33504;52.066;6.096;2024-01-10T03:44:12;103032.70;;;-2.54;35.48
47742;BME280;33504;52.066;6.096;2024-01-10T03:46:39;103031.62;;;-2.38;35.80
47742;BME280;33504;52.066;6.096;2024-01-10T03:49:07;103029.92;;;-2.62;35.66
47742;BME280;33504;52.066;6.096;2024-01-10T03:51:34;103028.46;;;-2.60;35.75
47742;BME280;33504;52.066;6.096;2024-01-10T03:54:01;103025.51;;;-2.40;35.58
47742;BME280;33504;52.066;6.096;2024-01-10T03:56:28;103030.06;;;-2.64;35.63
47742;BME280;33504;52.066;6.096;2024-01-10T03:58:55;103028.07;;;-2.46;35.72
47742;BME280;33504;52.066;6.096;2024-01-10T04:01:23;103026.73;;;-2.66;35.84
47742;BME280;33504;52.066;6.096;2024-01-10T04:03:50;103027.32;;;-2.60;35.75
47742;BME280;33504;52.066;6.096;2024-01-10T04:06:17;103033.53;;;-2.15;35.76
47742;BME280;33504;52.066;6.096;2024-01-10T04:08:44;103026.48;;;-2.57;35.84
47742;BME280;33504;52.066;6.096;2024-01-10T04:11:11;103021.70;;;-2.56;35.87
47742;BME280;33504;52.066;6.096;2024-01-10T04:13:38;103024.17;;;-2.60;35.99
47742;BME280;33504;52.066;6.096;2024-01-10T04:16:05;103023.76;;;-2.35;35.84
47742;BME280;33504;52.066;6.096;2024-01-10T04:18:32;103020.45;;;-2.56;35.76
47742;BME280;33504;52.066;6.096;2024-01-10T04:20:59;103016.05;;;-2.34;35.75
47742;BME280;33504;52.066;6.096;2024-01-10T04:23:26;103015.23;;;-2.56;35.70
47742;BME280;33504;52.066;6.096;2024-01-10T04:25:53;103017.92;;;-2.37;35.68
47742;BME280;33504;52.066;6.096;2024-01-10T04:28:21;103020.00;;;-2.78;35.86
47742;BME280;33504;52.066;6.096;2024-01-10T04:30:48;103020.73;;;-2.75;35.97
47742;BME280;33504;52.066;6.096;2024-01-10T04:33:15;103012.87;;;-2.51;35.90
47742;BME280;33504;52.066;6.096;2024-01-10T04:35:42;103018.16;;;-2.62;36.03
47742;BME280;33504;52.066;6.096;2024-01-10T04:38:10;103018.50;;;-2.89;36.07
47742;BME280;33504;52.066;6.096;2024-01-10T04:40:37;103014.26;;;-2.67;36.23
47742;BME280;33504;52.066;6.096;2024-01-10T04:43:04;103010.98;;;-2.63;36.25
47742;BME280;33504;52.066;6.096;2024-01-10T04:45:32;103009.37;;;-2.89;36.39
47742;BME280;33504;52.066;6.096;2024-01-10T04:47:59;103012.58;;;-2.73;36.28
47742;BME280;33504;52.066;6.096;2024-01-10T04:50:26;103007.84;;;-2.68;36.21
47742;BME280;33504;52.066;6.096;2024-01-10T04:52:54;103011.01;;;-2.79;36.44
47742;BME280;33504;52.066;6.096;2024-01-10T04:55:21;103013.37;;;-2.67;36.46
47742;BME280;33504;52.066;6.096;2024-01-10T04:57:48;103009.15;;;-3.08;36.39
47742;BME280;33504;52.066;6.096;2024-01-10T05:00:15;103007.85;;;-3.00;36.84
47742;BME280;33504;52.066;6.096;2024-01-10T05:02:43;103013.09;;;-3.53;36.97
47742;BME280;33504;52.066;6.096;2024-01-10T05:05:10;103009.02;;;-3.36;36.80
47742;BME280;33504;52.066;6.096;2024-01-10T05:07:37;103004.25;;;-3.06;36.72
47742;BME280;33504;52.066;6.096;2024-01-10T05:10:05;103002.69;;;-2.88;36.80
47742;BME280;33504;52.066;6.096;2024-01-10T05:12:32;102998.50;;;-3.11;36.83
47742;BME280;33504;52.066;6.096;2024-01-10T05:15:00;102996.96;;;-2.89;36.65
47742;BME280;33504;52.066;6.096;2024-01-10T05:17:27;102999.96;;;-2.53;36.52
47742;BME280;33504;52.066;6.096;2024-01-10T05:19:54;102997.20;;;-2.44;36.38
47742;BME280;33504;52.066;6.096;2024-01-10T05:22:21;102995.44;;;-2.67;36.62
47742;BME280;33504;52.066;6.096;2024-01-10T05:24:49;102989.59;;;-2.71;36.51
47742;BME280;33504;52.066;6.096;2024-01-10T05:27:16;102988.27;;;-3.08;36.64
47742;BME280;33504;52.066;6.096;2024-01-10T05:29:43;102991.18;;;-3.17;36.55
47742;BME280;33504;52.066;6.096;2024-01-10T05:32:10;102987.85;;;-3.14;36.82
47742;BME280;33504;52.066;6.096;2024-01-10T05:34:37;102986.08;;;-3.34;36.84
47742;BME280;33504;52.066;6.096;2024-01-10T05:37:04;102988.92;;;-2.96;36.49
47742;BME280;33504;52.066;6.096;2024-01-10T05:39:31;102990.41;;;-3.11;36.68
47742;BME280;33504;52.066;6.096;2024-01-10T05:41:58;102986.66;;;-3.12;36.68
47742;BME280;33504;52.066;6.096;2024-01-10T05:44:25;102985.61;;;-2.95;36.58
47742;BME280;33504;52.066;6.096;2024-01-10T05:46:53;102983.95;;;-2.73;36.29
47742;BME280;33504;52.066;6.096;2024-01-10T05:49:19;102984.10;;;-2.67;36.17
47742;BME280;33504;52.066;6.096;2024-01-10T05:51:46;102979.87;;;-2.67;36.21
47742;BME280;33504;52.066;6.096;2024-01-10T05:54:13;102983.41;;;-2.43;36.20
47742;BME280;33504;52.066;6.096;2024-01-10T05:56:40;102987.38;;;-2.59;36.10
47742;BME280;33504;52.066;6.096;2024-01-10T05:59:07;102988.17;;;-2.77;36.06
47742;BME280;33504;52.066;6.096;2024-01-10T06:01:34;102991.55;;;-2.66;36.05
47742;BME280;33504;52.066;6.096;2024-01-10T06:04:01;102989.81;;;-2.67;36.14
47742;BME280;33504;52.066;6.096;2024-01-10T06:06:29;102986.59;;;-2.33;35.81
47742;BME280;33504;52.066;6.096;2024-01-10T06:08:56;102986.61;;;-2.75;35.83
47742;BME280;33504;52.066;6.096;2024-01-10T06:11:23;102986.81;;;-2.70;35.72
47742;BME280;33504;52.066;6.096;2024-01-10T06:13:49;102987.27;;;-2.51;35.56
47742;BME280;33504;52.066;6.096;2024-01-10T06:16:17;102982.71;;;-2.80;35.55
47742;BME280;33504;52.066;6.096;2024-01-10T06:18:44;102977.52;;;-2.55;35.58
47742;BME280;33504;52.066;6.096;2024-01-10T06:21:11;102977.28;;;-2.79;35.53
47742;BME280;33504;52.066;6.096;2024-01-10T06:23:39;102981.46;;;-2.58;35.60
47742;BME280;33504;52.066;6.096;2024-01-10T06:26:05;102977.50;;;-2.70;35.74
47742;BME280;33504;52.066;6.096;2024-01-10T06:28:32;102972.77;;;-2.57;35.62
47742;BME280;33504;52.066;6.096;2024-01-10T06:30:59;102976.81;;;-2.76;35.52
47742;BME280;33504;52.066;6.096;2024-01-10T06:33:26;102974.94;;;-2.58;35.57
47742;BME280;33504;52.066;6.096;2024-01-10T06:35:54;102974.71;;;-2.81;35.67
47742;BME280;33504;52.066;6.096;2024-01-10T06:38:21;102972.83;;;-2.56;35.67
47742;BME280;33504;52.066;6.096;2024-01-10T06:40:47;102978.04;;;-2.78;35.71
47742;BME280;33504;52.066;6.096;2024-01-10T06:43:15;102977.99;;;-2.63;35.66
47742;BME280;33504;52.066;6.096;2024-01-10T06:45:42;102978.63;;;-2.94;35.79
47742;BME280;33504;52.066;6.096;2024-01-10T06:48:09;102970.99;;;-2.69;35.75
47742;BME280;33504;52.066;6.096;2024-01-10T06:50:38;102968.21;;;-2.86;35.68
47742;BME280;33504;52.066;6.096;2024-01-10T06:53:05;102976.75;;;-2.40;35.73
47742;BME280;33504;52.066;6.096;2024-01-10T06:55:32;102969.14;;;-2.85;35.69
47742;BME280;33504;52.066;6.096;2024-01-10T06:57:59;102965.35;;;-2.45;35.79
47742;BME280;33504;52.066;6.096;2024-01-10T07:00:27;102970.59;;;-2.65;35.69
47742;BME280;33504;52.066;6.096;2024-01-10T07:02:54;102966.42;;;-2.77;35.95
47742;BME280;33504;52.066;6.096;2024-01-10T07:05:21;102978.70;;;-3.02;35.98
47742;BME280;33504;52.066;6.096;2024-01-10T07:07:48;102974.86;;;-3.07;35.77
47742;BME280;33504;52.066;6.096;2024-01-10T07:10:16;102972.07;;;-2.80;35.76
47742;BME280;33504;52.066;6.096;2024-01-10T07:12:43;102973.91;;;-2.82;35.79
47742;BME280;33504;52.066;6.096;2024-01-10T07:15:11;102983.01;;;-2.78;35.73
47742;BME280;33504;52.066;6.096;2024-01-10T07:17:39;102986.83;;;-3.05;35.85
47742;BME280;33504;52.066;6.096;2024-01-10T07:20:07;102985.34;;;-2.95;35.92
47742;BME280;33504;52.066;6.096;2024-01-10T07:22:35;102987.48;;;-2.70;35.93
47742;BME280;33504;52.066;6.096;2024-01-10T07:25:02;102991.37;;;-2.72;36.00
47742;BME280;33504;52.066;6.096;2024-01-10T07:27:29;103000.32;;;-2.67;35.86
47742;BME280;33504;52.066;6.096;2024-01-10T07:29:56;102998.61;;;-2.93;35.75
47742;BME280;33504;52.066;6.096;2024-01-10T07:32:24;103006.78;;;-2.91;35.81
47742;BME280;33504;52.066;6.096;2024-01-10T07:34:51;102999.69;;;-2.78;35.97
47742;BME280;33504;52.066;6.096;2024-01-10T07:37:19;102999.70;;;-2.70;35.82
47742;BME280;33504;52.066;6.096;2024-01-10T07:39:45;102997.27;;;-3.03;36.00
47742;BME280;33504;52.066;6.096;2024-01-10T07:42:12;102998.56;;;-2.99;35.87
47742;BME280;33504;52.066;6.096;2024-01-10T07:44:39;103005.97;;;-2.74;35.96
47742;BME280;33504;52.066;6.096;2024-01-10T07:47:06;103010.99;;;-3.16;35.89
47742;BME280;33504;52.066;6.096;2024-01-10T07:49:33;103009.72;;;-2.89;35.85
47742;BME280;33504;52.066;6.096;2024-01-10T07:52:01;103012.93;;;-2.60;35.69
47742;BME280;33504;52.066;6.096;2024-01-10T07:54:28;103010.74;;;-2.56;35.71
47742;BME280;33504;52.066;6.096;2024-01-10T07:56:55;103004.18;;;-2.99;35.69
47742;BME280;33504;52.066;6.096;2024-01-10T07:59:22;103005.05;;;-2.77;35.67
47742;BME280;33504;52.066;6.096;2024-01-10T08:01:55;103002.92;;;-2.79;35.59
47742;BME280;33504;52.066;6.096;2024-01-10T08:04:23;103006.23;;;-2.85;35.63
47742;BME280;33504;52.066;6.096;2024-01-10T08:06:50;103011.84;;;-2.55;35.58
47742;BME280;33504;52.066;6.096;2024-01-10T08:09:17;103011.06;;;-2.73;35.77
47742;BME280;33504;52.066;6.096;2024-01-10T08:11:44;103007.56;;;-2.69;35.69
47742;BME280;33504;52.066;6.096;2024-01-10T08:14:11;103019.71;;;-2.43;35.69
47742;BME280;33504;52.066;6.096;2024-01-10T08:16:39;103015.07;;;-2.87;35.86
47742;BME280;33504;52.066;6.096;2024-01-10T08:19:06;103016.08;;;-2.70;35.48
47742;BME280;33504;52.066;6.096;2024-01-10T08:21:33;103007.93;;;-2.61;35.43
47742;BME280;33504;52.066;6.096;2024-01-10T08:24:01;103008.65;;;-2.88;35.51
47742;BME280;33504;52.066;6.096;2024-01-10T08:26:28;103011.21;;;-2.93;35.22
47742;BME280;33504;52.066;6.096;2024-01-10T08:28:55;103014.44;;;-2.85;35.10
47742;BME280;33504;52.066;6.096;2024-01-10T08:31:22;103008.36;;;-2.92;34.92
47742;BME280;33504;52.066;6.096;2024-01-10T08:33:49;103007.27;;;-3.03;34.91
47742;BME280;33504;52.066;6.096;2024-01-10T08:36:16;103007.41;;;-2.59;35.06
47742;BME280;33504;52.066;6.096;2024-01-10T08:38:44;103009.64;;;-2.96;34.92
47742;BME280;33504;52.066;6.096;2024-01-10T08:41:11;103004.81;;;-2.82;34.93
47742;BME280;33504;52.066;6.096;2024-01-10T08:43:39;103002.50;;;-2.79;34.80
47742;BME280;33504;52.066;6.096;2024-01-10T08:46:06;103002.45;;;-2.56;34.80
47742;BME280;33504;52.066;6.096;2024-01-10T08:48:33;103004.74;;;-2.62;34.37
47742;BME280;33504;52.066;6.096;2024-01-10T08:51:00;102992.43;;;-2.22;34.39
47742;BME280;33504;52.066;6.096;2024-01-10T08:53:28;102982.16;;;-2.67;34.40
47742;BME280;33504;52.066;6.096;2024-01-10T08:55:55;102979.81;;;-2.83;34.46
47742;BME280;33504;52.066;6.096;2024-01-10T08:58:22;102987.13;;;-2.64;34.56
47742;BME280;33504;52.066;6.096;2024-01-10T09:00:49;102986.78;;;-2.45;34.22
47742;BME280;33504;52.066;6.096;2024-01-10T09:03:17;102992.15;;;-2.46;34.17
47742;BME280;33504;52.066;6.096;2024-01-10T09:05:44;103002.61;;;-2.27;33.71
47742;BME280;33504;52.066;6.096;2024-01-10T09:08:11;103003.68;;;-2.23;33.68
47742;BME280;33504;52.066;6.096;2024-01-10T09:10:39;103001.97;;;-2.10;33.43
47742;BME280;33504;52.066;6.096;2024-01-10T09:13:06;102997.95;;;-2.01;33.60
47742;BME280;33504;52.066;6.096;2024-01-10T09:15:33;103006.55;;;-2.08;33.56
47742;BME280;33504;52.066;6.096;2024-01-10T09:18:00;103004.74;;;-2.11;33.01
47742;BME280;33504;52.066;6.096;2024-01-10T09:20:27;103005.37;;;-2.06;33.31
47742;BME280;33504;52.066;6.096;2024-01-10T09:22:54;103000.11;;;-2.27;33.51
47742;BME280;33504;52.066;6.096;2024-01-10T09:25:21;103002.40;;;-2.18;33.44
47742;BME280;33504;52.066;6.096;2024-01-10T09:27:48;102996.79;;;-2.03;33.39
47742;BME280;33504;52.066;6.096;2024-01-10T09:30:15;102995.62;;;-2.26;33.02
47742;BME280;33504;52.066;6.096;2024-01-10T09:32:42;102997.57;;;-2.01;32.92
47742;BME280;33504;52.066;6.096;2024-01-10T09:35:09;102999.59;;;-1.99;32.69
47742;BME280;33504;52.066;6.096;2024-01-10T09:37:37;103004.67;;;-2.63;33.24
47742;BME280;33504;52.066;6.096;2024-01-10T09:40:04;103000.71;;;-1.94;32.87
47742;BME280;33504;52.066;6.096;2024-01-10T09:42:32;103002.32;;;-1.88;32.98
47742;BME280;33504;52.066;6.096;2024-01-10T09:45:00;102999.02;;;-1.94;32.85
47742;BME280;33504;52.066;6.096;2024-01-10T09:47:28;102999.39;;;-1.30;32.60
47742;BME280;33504;52.066;6.096;2024-01-10T09:49:55;102996.83;;;-1.68;32.54
47742;BME280;33504;52.066;6.096;2024-01-10T09:52:25;102997.82;;;-1.53;32.51
47742;BME280;33504;52.066;6.096;2024-01-10T09:54:55;103001.10;;;-1.51;32.69
47742;BME280;33504;52.066;6.096;2024-01-10T09:57:22;103002.70;;;-1.59;32.32
47742;BME280;33504;52.066;6.096;2024-01-10T09:59:50;103000.16;;;-1.65;32.46
47742;BME280;33504;52.066;6.096;2024-01-10T10:02:18;102997.88;;;-1.65;32.15
47742;BME280;33504;52.066;6.096;2024-01-10T10:04:53;102995.83;;;-1.93;32.20
47742;BME280;33504;52.066;6.096;2024-01-10T10:07:20;103000.05;;;-1.77;32.10
47742;BME280;33504;52.066;6.096;2024-01-10T10:09:48;102999.03;;;-1.85;32.15
47742;BME280;33504;52.066;6.096;2024-01-10T10:12:15;102998.77;;;-1.60;32.02
47742;BME280;33504;52.066;6.096;2024-01-10T10:14:42;103000.03;;;-1.79;32.04
47742;BME280;33504;52.066;6.096;2024-01-10T10:17:17;102996.88;;;-1.45;31.58
47742;BME280;33504;52.066;6.096;2024-01-10T10:19:44;102995.17;;;-1.49;31.19
47742;BME280;33504;52.066;6.096;2024-01-10T10:22:11;102996.52;;;-1.65;31.55
47742;BME280;33504;52.066;6.096;2024-01-10T10:24:40;102993.50;;;-1.33;30.99
47742;BME280;33504;52.066;6.096;2024-01-10T10:27:08;102989.84;;;-1.06;30.83
47742;BME280;33504;52.066;6.096;2024-01-10T10:29:36;102987.30;;;-0.70;30.54
47742;BME280;33504;52.066;6.096;2024-01-10T10:32:03;102983.38;;;0.25;29.59
47742;BME280;33504;52.066;6.096;2024-01-10T10:34:31;102983.93;;;0.27;28.99
47742;BME280;33504;52.066;6.096;2024-01-10T10:36:58;102980.00;;;0.05;29.18
47742;BME280;33504;52.066;6.096;2024-01-10T10:39:25;102980.22;;;0.12;29.36
47742;BME280;33504;52.066;6.096;2024-01-10T10:41:52;102977.54;;;-0.03;29.49
47742;BME280;33504;52.066;6.096;2024-01-10T10:44:19;102965.94;;;0.67;28.84
47742;BME280;33504;52.066;6.096;2024-01-10T10:46:53;102956.78;;;2.06;27.19
47742;BME280;33504;52.066;6.096;2024-01-10T10:49:23;102956.70;;;3.30;25.97
47742;BME280;33504;52.066;6.096;2024-01-10T10:51:54;102957.13;;;4.12;24.99
47742;BME280;33504;52.066;6.096;2024-01-10T10:54:26;102947.82;;;5.15;23.71
47742;BME280;33504;52.066;6.096;2024-01-10T10:56:56;102952.19;;;6.33;22.77
47742;BME280;33504;52.066;6.096;2024-01-10T10:59:26;102951.72;;;6.95;21.62
47742;BME280;33504;52.066;6.096;2024-01-10T11:01:54;102955.61;;;7.32;20.73
47742;BME280;33504;52.066;6.096;2024-01-10T11:04:21;102953.56;;;8.00;20.41
47742;BME280;33504;52.066;6.096;2024-01-10T11:06:48;102957.37;;;8.26;19.93
47742;BME280;33504;52.066;6.096;2024-01-10T11:09:18;102955.19;;;8.88;19.25
47742;BME280;33504;52.066;6.096;2024-01-10T11:11:59;102950.93;;;9.25;19.70
47742;BME280;33504;52.066;6.096;2024-01-10T11:14:35;102956.03;;;9.72;19.18
47742;BME280;33504;52.066;6.096;2024-01-10T11:17:21;102952.22;;;9.75;18.39
47742;BME280;33504;52.066;6.096;2024-01-10T11:20:14;102947.82;;;10.38;18.64
47742;BME280;33504;52.066;6.096;2024-01-10T11:23:00;102947.43;;;10.14;18.24
47742;BME280;33504;52.066;6.096;2024-01-10T11:25:30;102950.86;;;10.53;17.64
47742;BME280;33504;52.066;6.096;2024-01-10T11:27:57;102947.88;;;10.70;17.74
47742;BME280;33504;52.066;6.096;2024-01-10T11:30:33;102947.12;;;10.99;17.10
47742;BME280;33504;52.066;6.096;2024-01-10T11:33:02;102946.34;;;11.29;17.39
47742;BME280;33504;52.066;6.096;2024-01-10T11:35:28;102944.59;;;11.50;17.21
47742;BME280;33504;52.066;6.096;2024-01-10T11:37:59;102943.05;;;10.90;17.20
47742;BME280;33504;52.066;6.096;2024-01-10T11:40:46;102942.19;;;11.08;17.46
47742;BME280;33504;52.066;6.096;2024-01-10T11:43:13;102940.62;;;11.27;17.12
47742;BME280;33504;52.066;6.096;2024-01-10T11:45:50;102940.81;;;11.21;16.95
47742;BME280;33504;52.066;6.096;2024-01-10T11:48:26;102928.36;;;11.46;16.99
47742;BME280;33504;52.066;6.096;2024-01-10T11:50:53;102924.56;;;11.64;16.54
47742;BME280;33504;52.066;6.096;2024-01-10T11:53:38;102926.77;;;11.26;16.54
47742;BME280;33504;52.066;6.096;2024-01-10T11:56:09;102926.37;;;11.24;16.97
47742;BME280;33504;52.066;6.096;2024-01-10T11:58:52;102922.08;;;10.69;17.38
47742;BME280;33504;52.066;6.096;2024-01-10T12:01:21;102916.78;;;9.86;17.49
47742;BME280;33504;52.066;6.096;2024-01-10T12:03:51;102912.79;;;10.08;17.47
47742;BME280;33504;52.066;6.096;2024-01-10T12:06:21;102909.65;;;9.74;17.91
47742;BME280;33504;52.066;6.096;2024-01-10T12:08:49;102907.82;;;9.33;18.50
47742;BME280;33504;52.066;6.096;2024-01-10T12:11:16;102908.02;;;8.71;18.53
47742;BME280;33504;52.066;6.096;2024-01-10T12:13:43;102906.96;;;8.21;19.33
47742;BME280;33504;52.066;6.096;2024-01-10T12:16:12;102909.92;;;7.41;19.38
47742;BME280;33504;52.066;6.096;2024-01-10T12:18:40;102911.63;;;6.71;20.51
47742;BME280;33504;52.066;6.096;2024-01-10T12:21:07;102906.12;;;5.52;21.87
47742;BME280;33504;52.066;6.096;2024-01-10T12:23:34;102907.02;;;4.88;22.14
47742;BME280;33504;52.066;6.096;2024-01-10T12:26:02;102908.97;;;5.13;22.65
47742;BME280;33504;52.066;6.096;2024-01-10T12:28:29;102911.14;;;4.51;22.82
47742;BME280;33504;52.066;6.096;2024-01-10T12:30:57;102908.11;;;4.53;23.41
47742;BME280;33504;52.066;6.096;2024-01-10T12:33:25;102911.44;;;3.31;23.72
47742;BME280;33504;52.066;6.096;2024-01-10T12:36:09;102910.97;;;3.77;23.92
47742;BME280;33504;52.066;6.096;2024-01-10T12:38:37;102907.85;;;3.22;24.06
47742;BME280;33504;52.066;6.096;2024-01-10T12:41:05;102906.59;;;2.80;24.31
47742;BME280;33504;52.066;6.096;2024-01-10T12:43:32;102902.42;;;3.61;24.57
47742;BME280;33504;52.066;6.096;2024-01-10T12:46:03;102902.67;;;3.18;24.40
47742;BME280;33504;52.066;6.096;2024-01-10T12:48:30;102894.71;;;3.59;24.49
47742;BME280;33504;52.066;6.096;2024-01-10T12:50:58;102899.20;;;3.70;24.83
47742;BME280;33504;52.066;6.096;2024-01-10T12:53:25;102897.19;;;3.46;24.30